Time;durP1;ratioP1;P1;durP2;ratioP2;P2;SDS_P1;SDS_P2;PMS_P1;PMS_P2;Temp;Humidity;BMP_temperature;BMP_pressure;BME280_temperature;BME280_humidity;BME280_pressure;Samples;Min_cycle;Max_cycle;Signal;HPM_P1;HPM_P2
2022/03/22 00:00:58;;;;;;;23.75;16.48;;;;;;;6.27;44.79;98001.13;4799089;29;20059;-80
2022/03/22 00:03:29;;;;;;;23.02;15.73;;;;;;;6.24;44.50;97998.78;4809045;29;20118;-80
2022/03/22 00:05:58;;;;;;;24.77;15.70;;;;;;;6.18;44.71;97995.72;4809938;29;20051;-80
2022/03/22 00:08:26;;;;;;;35.90;14.50;;;;;;;6.05;44.32;98000.19;4793958;29;20078;-80
2022/03/22 00:10:54;;;;;;;19.52;13.95;;;;;;;5.91;44.58;97998.66;4790644;29;20055;-80
2022/03/22 00:13:22;;;;;;;19.35;13.63;;;;;;;5.86;44.81;97994.75;4789510;29;20416;-80
2022/03/22 00:15:50;;;;;;;20.98;13.88;;;;;;;5.85;45.28;97998.31;4780242;29;20056;-80
2022/03/22 00:18:40;;;;;;;20.38;15.07;;;;;;;5.85;45.11;98008.66;4770465;30;20056;-79
2022/03/22 00:21:08;;;;;;;21.42;13.52;;;;;;;5.82;44.69;98001.94;4770996;30;20060;-80
2022/03/22 00:23:37;;;;;;;21.20;13.35;;;;;;;5.75;44.66;98004.19;4771314;30;20468;-80
2022/03/22 00:26:05;;;;;;;18.30;12.60;;;;;;;5.67;44.93;97996.16;4770610;30;20434;-80
2022/03/22 00:28:33;;;;;;;20.27;13.00;;;;;;;5.63;45.51;97993.94;4770622;30;20055;-80
2022/03/22 00:31:02;;;;;;;18.48;14.10;;;;;;;5.71;46.30;97995.00;4770846;30;20060;-80
2022/03/22 00:33:33;;;;;;;23.73;14.93;;;;;;;5.86;45.75;97994.75;4770602;30;20603;-79
2022/03/22 00:36:03;;;;;;;23.00;16.02;;;;;;;5.87;45.58;97996.41;4770691;30;20058;-79
2022/03/22 00:38:31;;;;;;;25.90;16.75;;;;;;;5.90;45.71;98006.53;4770771;30;20067;-80
2022/03/22 00:40:59;;;;;;;25.02;17.77;;;;;;;5.96;46.06;97991.38;4770536;30;20069;-79
2022/03/22 00:43:27;;;;;;;30.67;17.92;;;;;;;6.03;45.19;97996.91;4770422;30;20503;-80
2022/03/22 00:45:56;;;;;;;26.00;17.02;;;;;;;5.93;44.78;97994.19;4770031;30;20087;-80
2022/03/22 00:48:24;;;;;;;28.25;18.42;;;;;;;5.80;45.29;98003.03;4770055;30;20056;-80
2022/03/22 00:50:52;;;;;;;27.70;18.10;;;;;;;5.64;45.78;97999.00;4770236;30;20059;-79
2022/03/22 00:53:21;;;;;;;23.35;16.48;;;;;;;5.61;46.58;97996.63;4770850;30;20142;-80
2022/03/22 00:55:50;;;;;;;23.45;16.77;;;;;;;5.63;46.18;97989.56;4770795;30;20062;-80
2022/03/22 00:58:19;;;;;;;26.33;17.25;;;;;;;5.63;46.33;97994.75;4770482;30;20060;-79
2022/03/22 01:00:48;;;;;;;22.95;16.15;;;;;;;5.70;46.65;97990.75;4770733;30;20146;-80
2022/03/22 01:03:16;;;;;;;21.77;14.90;;;;;;;5.77;45.83;97986.78;4770950;30;20130;-80
2022/03/22 01:05:45;;;;;;;21.95;15.65;;;;;;;5.85;46.27;97985.34;4770422;30;20080;-80
2022/03/22 01:08:14;;;;;;;23.08;15.75;;;;;;;5.81;45.24;97983.94;4770217;30;20062;-79
2022/03/22 01:10:52;;;;;;;24.25;14.90;;;;;;;5.76;46.90;97985.09;4770450;30;20117;-80
2022/03/22 01:13:22;;;;;;;22.17;14.82;;;;;;;5.73;45.89;97985.34;4770296;30;20093;-80
2022/03/22 01:15:50;;;;;;;18.83;14.52;;;;;;;5.67;46.06;97980.63;4778495;30;20055;-80
2022/03/22 01:18:19;;;;;;;23.38;16.10;;;;;;;5.68;46.83;97982.28;4788029;29;20112;-80
2022/03/22 01:20:49;;;;;;;18.75;14.05;;;;;;;5.72;46.56;97986.28;4788839;29;20069;-80
2022/03/22 01:23:19;;;;;;;27.70;18.45;;;;;;;5.67;45.99;97985.81;4788878;29;20055;-80
2022/03/22 01:25:51;;;;;;;28.63;20.67;;;;;;;5.49;46.04;97982.88;4807390;29;20442;-81
2022/03/22 01:28:19;;;;;;;26.75;17.73;;;;;;;5.34;46.37;97977.06;4810426;29;20062;-80
2022/03/22 01:30:47;;;;;;;23.67;16.65;;;;;;;5.23;47.19;97974.47;4798517;29;20063;-80
2022/03/22 01:33:15;;;;;;;22.33;15.00;;;;;;;5.26;47.73;97970.81;4789914;29;20087;-80
2022/03/22 01:35:44;;;;;;;20.48;14.65;;;;;;;5.31;48.12;97969.53;4788600;29;20052;-80
2022/03/22 01:38:12;;;;;;;29.90;17.55;;;;;;;5.25;46.65;97964.81;4788231;29;20061;-80
2022/03/22 01:40:42;;;;;;;20.20;14.25;;;;;;;5.24;47.80;97963.16;4788568;29;20083;-79
2022/03/22 01:43:11;;;;;;;24.33;15.88;;;;;;;5.31;47.66;97969.53;4788083;29;20070;-80
2022/03/22 01:45:39;;;;;;;20.55;14.85;;;;;;;5.33;47.21;97967.63;4788568;29;20047;-80
2022/03/22 01:48:07;;;;;;;21.05;15.02;;;;;;;5.27;46.68;97968.13;4788286;29;20425;-80
2022/03/22 01:50:36;;;;;;;18.17;14.30;;;;;;;5.14;46.52;97963.03;4788200;29;20476;-79
2022/03/22 01:53:09;;;;;;;19.90;14.27;;;;;;;5.08;48.06;97960.91;4788207;29;20056;-80
2022/03/22 01:55:37;;;;;;;22.00;16.23;;;;;;;5.06;46.67;97956.78;4788838;29;20051;-80
2022/03/22 01:58:06;;;;;;;19.48;14.68;;;;;;;4.94;46.82;97958.50;4787791;29;20415;-79
2022/03/22 02:00:36;;;;;;;21.15;14.80;;;;;;;4.98;48.53;97959.09;4788868;29;20487;-79
2022/03/22 02:05:54;;;;;;;17.25;13.27;;;;;;;5.05;47.15;97953.38;4791282;29;20075;-80
2022/03/22 02:08:26;;;;;;;19.95;14.65;;;;;;;5.01;46.67;97946.78;4791584;29;20189;-80
2022/03/22 02:10:55;;;;;;;20.08;13.57;;;;;;;4.84;46.57;97955.78;4791333;29;20120;-80
2022/03/22 02:13:23;;;;;;;20.27;14.10;;;;;;;4.69;47.02;97947.38;4791787;29;20494;-80
2022/03/22 02:15:54;;;;;;;19.50;14.23;;;;;;;4.66;47.46;97951.97;4791097;29;20054;-80
2022/03/22 02:18:24;;;;;;;26.20;17.40;;;;;;;4.69;47.58;97951.72;4791444;29;20142;-80
2022/03/22 02:20:53;;;;;;;29.90;18.55;;;;;;;4.67;47.35;97949.25;4791917;29;20109;-80
2022/03/22 02:23:26;;;;;;;18.98;14.00;;;;;;;4.71;49.02;97949.84;4791172;29;20070;-80
2022/03/22 02:25:55;;;;;;;;;;;;;;;4.84;49.49;97950.59;4791797;29;20055;-80
2022/03/22 02:28:23;;;;;;;16.88;12.45;;;;;;;4.91;47.56;97941.44;4791375;29;19926;-80
2022/03/22 02:30:52;;;;;;;18.90;12.80;;;;;;;4.98;48.02;97946.19;4791058;29;20051;-79
2022/03/22 02:33:21;;;;;;;20.73;13.45;;;;;;;4.97;47.40;97947.94;4792242;29;20142;-80
2022/03/22 02:35:49;;;;;;;18.08;13.27;;;;;;;4.94;47.75;97941.25;4791918;29;20058;-80
2022/03/22 02:38:17;;;;;;;18.25;12.45;;;;;;;4.95;47.11;97948.03;4792325;29;20086;-80
2022/03/22 02:40:46;;;;;;;17.13;12.73;;;;;;;4.96;47.35;97943.69;4790766;29;20146;-79
2022/03/22 02:43:16;;;;;;;19.25;13.38;;;;;;;4.95;46.67;97958.38;4791075;29;20142;-80
2022/03/22 02:45:44;;;;;;;17.08;11.68;;;;;;;4.98;47.59;97951.34;4790779;29;20051;-80
2022/03/22 02:48:12;;;;;;;17.65;12.63;;;;;;;4.95;46.65;97960.97;4790706;29;20128;-79
2022/03/22 08:06:40;;;;;;;10.07;8.07;;;;;;;11.54;29.96;98053.47;4847411;29;20139;-82
2022/03/22 08:09:15;;;;;;;11.48;8.13;;;;;;;11.75;29.91;98038.28;4849265;29;20068;-80
2022/03/22 08:11:55;;;;;;;8.48;7.10;;;;;;;12.03;30.04;98047.78;4849362;29;20078;-81
2022/03/22 08:14:38;;;;;;;11.40;8.00;;;;;;;12.32;29.80;98044.81;4849175;29;20052;-80
2022/03/22 08:17:14;;;;;;;9.80;7.80;;;;;;;12.60;29.10;98055.88;4887304;24;20078;-81
2022/03/22 08:22:33;;;;;;;9.50;7.30;;;;;;;13.18;28.17;98047.19;5076019;24;20260;-80
2022/03/22 08:28:07;;;;;;;13.32;7.75;;;;;;;13.80;26.94;98043.25;5286217;24;20047;-81
2022/03/22 08:31:05;;;;;;;12.52;8.90;;;;;;;14.07;27.34;98043.84;4812294;29;20039;-79
2022/03/22 08:33:41;;;;;;;16.95;7.75;;;;;;;14.37;27.00;98040.44;4812359;29;20079;-79
2022/03/22 08:57:33;;;;;;;11.48;7.95;;;;;;;16.90;24.34;98038.41;4828505;29;20084;-79
2022/03/22 09:00:14;;;;;;;12.10;8.57;;;;;;;17.12;25.95;98028.72;4829868;29;20069;-79
2022/03/22 09:02:57;;;;;;;11.50;7.22;;;;;;;17.40;24.82;98038.47;4830083;29;20039;-79
2022/03/22 09:08:21;;;;;;;12.27;9.02;;;;;;;18.03;24.27;98028.81;4829800;29;20045;-79
2022/03/22 09:11:06;;;;;;;12.40;8.57;;;;;;;18.41;24.35;98028.41;4829756;29;20057;-80
2022/03/22 09:13:40;;;;;;;9.20;8.25;;;;;;;18.73;23.51;98026.09;4829459;29;20068;-80
2022/03/22 09:16:15;;;;;;;10.10;8.93;;;;;;;18.92;23.09;98028.00;4829573;29;20094;-79
2022/03/22 09:18:47;;;;;;;11.23;8.73;;;;;;;19.17;22.60;98034.56;4829434;29;20078;-79
2022/03/22 09:21:20;;;;;;;12.48;9.30;;;;;;;19.42;22.58;98022.38;4829669;29;20111;-79
2022/03/22 09:23:50;;;;;;;13.45;9.10;;;;;;;19.71;22.83;98021.16;4829698;29;20502;-79
2022/03/22 09:26:28;;;;;;;10.13;9.07;;;;;;;20.13;22.66;98018.22;4829507;29;20054;-79
2022/03/22 09:29:03;;;;;;;11.50;8.30;;;;;;;20.49;23.10;98023.00;4829506;29;20039;-78
2022/03/22 09:31:36;;;;;;;11.13;8.82;;;;;;;20.88;21.38;98020.38;4829991;29;20038;-79
2022/03/22 09:34:19;;;;;;;11.85;9.25;;;;;;;21.20;20.73;98019.38;4829374;29;20066;-79
2022/03/22 09:36:52;;;;;;;12.02;8.63;;;;;;;21.58;21.45;98015.00;4829607;29;20045;-80
2022/03/22 09:39:31;;;;;;;;;;;;;;;22.04;21.09;98018.25;4830314;29;20064;-79
2022/03/22 10:47:07;;;;;;;13.80;9.30;;;;;;;37.30;8.24;97988.19;4772732;30;20430;-81
2022/03/22 10:49:34;;;;;;;13.40;10.27;;;;;;;37.42;8.66;97982.88;4774744;30;20056;-82
2022/03/22 10:52:18;;;;;;;12.13;8.98;;;;;;;37.52;8.46;97984.44;4773982;30;20064;-82
2022/03/22 10:54:46;;;;;;;10.77;9.45;;;;;;;37.77;8.25;97984.72;4774201;30;20477;-81
2022/03/22 10:57:17;;;;;;;13.18;9.25;;;;;;;38.00;8.35;97983.31;4773651;30;20147;-81
2022/03/22 11:03:59;;;;;;;11.90;9.57;;;;;;;38.91;8.01;97977.47;4832839;29;20051;-81
2022/03/22 11:06:30;;;;;;;11.48;9.77;;;;;;;39.03;7.27;97979.47;4830747;29;20043;-84
2022/03/22 11:08:59;;;;;;;11.35;9.25;;;;;;;39.14;7.41;97962.34;4827559;29;20047;-85
2022/03/22 11:11:28;;;;;;;14.65;9.50;;;;;;;39.30;7.37;97967.97;4824992;29;20065;-85
2022/03/22 11:13:56;;;;;;;13.65;11.43;;;;;;;39.53;7.24;97965.63;4813313;29;20418;-85
2022/03/22 11:16:27;;;;;;;11.18;9.32;;;;;;;39.58;7.59;97967.38;4822935;29;20065;-85
2022/03/22 11:18:58;;;;;;;9.20;8.30;;;;;;;39.75;7.49;97964.41;4829525;29;20498;-85
2022/03/22 11:21:27;;;;;;;;;;;;;;;40.41;7.66;97965.34;4829563;29;20065;-86
2022/03/22 11:24:07;;;;;;;10.68;9.05;;;;;;;40.55;6.49;97960.25;4827242;29;19928;-85
2022/03/22 11:26:40;;;;;;;9.77;8.73;;;;;;;40.79;6.93;97958.63;4827399;29;20050;-85
2022/03/22 11:29:10;;;;;;;10.30;9.30;;;;;;;41.07;6.89;97953.13;4827105;29;20060;-85
2022/03/22 11:31:38;;;;;;;10.95;8.55;;;;;;;41.19;6.35;97957.78;4827191;29;20054;-85
2022/03/22 11:34:09;;;;;;;8.70;7.90;;;;;;;41.15;6.07;97954.13;4827056;29;20066;-85
2022/03/22 11:36:41;;;;;;;9.73;8.20;;;;;;;41.04;5.91;97942.88;4826015;29;20107;-85
2022/03/22 11:39:08;;;;;;;8.15;7.45;;;;;;;40.83;6.01;97947.78;4827564;29;20050;-85
2022/03/22 11:44:29;;;;;;;9.43;8.07;;;;;;;40.35;6.04;97933.91;4827803;29;20052;-85
2022/03/22 11:47:08;;;;;;;9.45;8.00;;;;;;;39.90;6.64;97943.81;4825915;29;20055;-85
2022/03/22 11:49:50;;;;;;;9.90;7.63;;;;;;;39.76;6.32;97926.97;4826292;29;20058;-85
2022/03/22 11:52:20;;;;;;;8.52;7.43;;;;;;;39.73;6.22;97928.47;4826945;29;20054;-85
2022/03/22 11:54:56;;;;;;;8.55;7.75;;;;;;;39.65;6.11;97934.81;4827045;29;20054;-85
2022/03/22 11:57:25;;;;;;;8.68;7.78;;;;;;;39.73;6.67;97924.91;4825579;29;20054;-85
2022/03/22 11:59:53;;;;;;;12.95;7.38;;;;;;;39.89;6.61;97925.06;4826201;29;20494;-85
2022/03/22 12:02:22;;;;;;;8.52;7.70;;;;;;;39.73;6.02;97925.72;4826528;29;20057;-85
2022/03/22 12:04:52;;;;;;;7.88;6.80;;;;;;;39.58;5.91;97918.22;4826355;29;20062;-85
2022/03/22 12:07:28;;;;;;;10.10;7.07;;;;;;;39.44;6.34;97913.06;4826215;29;20058;-85
2022/03/22 12:10:05;;;;;;;7.15;6.45;;;;;;;39.62;6.93;97923.78;4826169;29;20050;-85
2022/03/22 12:12:33;;;;;;;8.10;7.40;;;;;;;39.71;6.46;97919.00;4826311;29;20079;-85
2022/03/22 12:15:02;;;;;;;9.63;7.57;;;;;;;39.45;6.25;97913.84;4826185;29;20054;-85
2022/03/22 12:17:30;;;;;;;8.23;6.88;;;;;;;37.90;6.83;97910.16;4826175;29;20055;-85
2022/03/22 12:20:00;;;;;;;10.30;7.90;;;;;;;35.48;8.16;97905.25;4845096;29;20058;-81
2022/03/22 13:00:57;;;;;;;8.23;5.90;;;;;;;22.81;14.35;97859.00;4907691;24;20086;-79
2022/03/22 13:03:25;;;;;;;7.65;5.07;;;;;;;22.59;14.48;97854.22;4866625;29;20034;-79
2022/03/22 13:05:53;;;;;;;10.50;5.88;;;;;;;22.49;15.05;97858.47;4866200;29;20049;-78
2022/03/22 13:08:23;;;;;;;9.80;5.72;;;;;;;22.42;14.93;97853.25;4866136;29;20049;-78
2022/03/22 14:10:24;;;;;;;7.55;5.45;;;;;;;19.76;16.25;97817.50;4238013;24;20108;-79
2022/03/22 14:12:52;;;;;;;14.00;5.68;;;;;;;19.66;16.39;97814.47;4863219;29;20129;-79
2022/03/22 14:15:20;;;;;;;6.82;5.10;;;;;;;19.54;16.48;97813.47;4866890;29;20042;-79
2022/03/22 14:17:47;;;;;;;11.75;5.55;;;;;;;19.46;16.22;97813.72;4860697;29;20060;-79
2022/03/22 14:20:17;;;;;;;6.00;5.10;;;;;;;19.40;16.72;97820.66;4866389;29;20060;-79
2022/03/22 15:37:49;;;;;;;6.47;5.07;;;;;;;18.03;16.88;97791.19;4829607;29;20050;-80
2022/03/22 18:08:44;;;;;;;7.93;5.45;;;;;;;14.17;25.52;97824.84;4849014;29;20054;-80
2022/03/22 18:12:13;;;;;;;8.30;4.85;;;;;;;13.98;25.68;97831.34;5173774;24;20077;-80
2022/03/22 18:29:06;;;;;;;11.25;7.07;;;;;;;13.26;26.50;97839.34;4891060;24;20038;-80
2022/03/22 18:32:10;;;;;;;7.05;5.60;;;;;;;13.12;26.43;97843.47;5358061;24;20042;-81
2022/03/22 18:37:46;;;;;;;9.73;6.03;;;;;;;12.91;26.64;97843.19;4849158;29;19968;-81
2022/03/22 18:40:36;;;;;;;11.32;6.45;;;;;;;12.75;27.03;97850.06;4873064;24;20045;-79
2022/03/22 18:43:34;;;;;;;10.32;5.93;;;;;;;12.62;26.37;97848.94;4837522;29;20034;-81
2022/03/22 21:01:16;;;;;;;8.32;6.18;;;;;;;9.18;32.99;97892.47;4822869;29;20298;-81
2022/03/22 21:03:45;;;;;;;8.52;6.35;;;;;;;9.14;32.76;97898.06;4824266;29;20085;-81
2022/03/22 21:09:03;;;;;;;8.35;5.85;;;;;;;9.32;35.27;97901.59;4826137;29;20454;-76
2022/03/22 21:11:32;;;;;;;7.38;5.75;;;;;;;9.46;35.15;97895.91;4823209;29;20069;-80
2022/03/22 22:35:54;;;;;;;9.55;6.00;;;;;;;7.67;36.39;97868.53;4865042;24;20063;-82
2022/03/22 22:38:35;;;;;;;11.77;7.30;;;;;;;7.62;35.78;97863.75;4964321;24;20054;-82
2022/03/22 22:43:59;;;;;;;9.68;7.15;;;;;;;7.57;36.16;97865.13;4819582;29;20103;-81
2022/03/22 22:46:34;;;;;;;11.57;6.65;;;;;;;7.52;36.61;97862.06;4832731;29;20034;-82
2022/03/22 22:49:12;;;;;;;11.35;6.93;;;;;;;7.49;36.46;97859.75;4832709;29;20068;-82
2022/03/22 22:51:54;;;;;;;12.27;6.72;;;;;;;7.50;36.72;97869.16;4832409;29;20034;-82
2022/03/22 22:54:27;;;;;;;10.50;6.75;;;;;;;7.54;36.43;97860.16;4832310;29;20034;-82
2022/03/22 22:56:58;;;;;;;9.38;6.75;;;;;;;7.56;36.70;97856.47;4824588;24;20086;-80
2022/03/22 22:59:26;;;;;;;11.52;7.60;;;;;;;7.51;36.71;97858.66;4809872;29;20059;-80
2022/03/22 23:01:54;;;;;;;13.68;8.15;;;;;;;7.45;37.05;97858.38;4810100;29;20138;-80
2022/03/22 23:04:22;;;;;;;10.25;7.97;;;;;;;7.37;37.24;97854.66;4810552;29;20090;-80
2022/03/22 23:12:21;;;;;;;11.90;7.70;;;;;;;7.37;37.75;97852.06;4809752;29;20070;-80
2022/03/22 23:14:49;;;;;;;10.70;8.07;;;;;;;7.43;37.46;97856.75;4809436;29;20062;-80
2022/03/22 23:17:16;;;;;;;12.57;7.75;;;;;;;7.43;37.46;97853.28;4808944;29;20047;-80
2022/03/22 23:19:44;;;;;;;11.80;7.68;;;;;;;7.46;37.53;97852.25;4827639;29;20065;-81
2022/03/22 23:22:13;;;;;;;9.13;7.18;;;;;;;7.53;37.74;97853.34;4827847;29;20069;-80
2022/03/22 23:24:41;;;;;;;10.25;7.78;;;;;;;7.57;36.93;97860.75;4827727;29;20058;-80
2022/03/22 23:27:10;;;;;;;9.20;7.25;;;;;;;7.59;38.17;97856.25;4827458;29;20062;-80
2022/03/22 23:29:37;;;;;;;10.00;7.90;;;;;;;7.67;38.87;97850.38;4827183;29;20054;-80
2022/03/22 23:32:06;;;;;;;10.90;7.85;;;;;;;7.69;38.04;97850.25;4826875;29;20061;-80
2022/03/22 23:34:35;;;;;;;12.85;8.27;;;;;;;7.65;37.50;97857.47;4827310;29;20050;-81
2022/03/22 23:37:03;;;;;;;12.50;8.25;;;;;;;7.59;37.55;97855.44;4826421;29;20050;-80
2022/03/22 23:39:33;;;;;;;12.55;7.63;;;;;;;7.56;38.19;97860.88;4826851;29;20062;-80
2022/03/22 23:42:02;;;;;;;10.82;8.43;;;;;;;7.55;38.06;97857.44;4827158;29;20057;-80
2022/03/22 23:44:30;;;;;;;8.60;7.40;;;;;;;7.54;37.25;97862.75;4827176;29;20123;-80
2022/03/22 23:46:59;;;;;;;8.77;6.63;;;;;;;7.48;37.45;97858.09;4826228;29;20133;-80
2022/03/22 23:49:26;;;;;;;9.32;6.78;;;;;;;7.39;37.37;97857.94;4827169;29;20054;-80
2022/03/22 23:51:54;;;;;;;9.52;6.72;;;;;;;7.33;37.51;97858.47;4826774;29;20061;-80
2022/03/22 23:54:22;;;;;;;10.18;7.15;;;;;;;7.28;38.03;97860.63;4826405;29;20081;-80
2022/03/22 23:56:51;;;;;;;10.57;7.57;;;;;;;7.26;38.46;97867.72;4825696;29;20059;-80
2022/03/22 23:59:18;;;;;;;9.63;7.55;;;;;;;7.26;39.20;97864.28;4826428;29;20077;-80
